createdAt,value
2022-11-07T00:11:58.626Z,64.55
2022-11-07T00:27:00.611Z,56.78
2022-11-07T00:42:02.614Z,53.50
2022-11-07T00:57:04.560Z,52.05
2022-11-07T01:12:07.110Z,42.90
2022-11-07T01:27:09.044Z,45.05
2022-11-07T01:42:12.502Z,41.25
2022-11-07T01:57:22.490Z,39.83
2022-11-07T02:12:26.797Z,40.63
2022-11-07T02:27:32.155Z,30.77
2022-11-07T02:42:44.646Z,24.42
2022-11-07T02:57:46.556Z,22.25
2022-11-07T03:12:48.468Z,20.73
2022-11-07T03:27:50.945Z,20.02
2022-11-07T03:42:52.959Z,20.50
2022-11-07T03:57:54.808Z,17.92
2022-11-07T04:13:15.377Z,24.00
2022-11-07T04:28:18.092Z,18.13
2022-11-07T04:43:20.011Z,22.70
2022-11-07T04:58:21.881Z,16.42
2022-11-07T05:13:23.819Z,11.82
2022-11-07T05:28:37.297Z,14.30
2022-11-07T05:43:41.059Z,16.70
2022-11-07T05:58:42.913Z,17.15
2022-11-07T06:13:44.752Z,12.75
2022-11-07T06:28:46.752Z,11.60
2022-11-07T06:43:51.337Z,18.23
2022-11-07T06:58:53.404Z,12.80
2022-11-07T07:14:01.823Z,20.60
2022-11-07T07:29:04.304Z,18.43
2022-11-07T07:44:06.567Z,19.08
2022-11-07T08:15:14.232Z,12.20
2022-11-07T08:30:18.060Z,16.30
2022-11-07T08:45:20.248Z,14.77
2022-11-07T09:00:22.199Z,19.80
2022-11-07T09:15:24.118Z,14.75
2022-11-07T09:30:26.116Z,15.35
2022-11-07T09:45:31.187Z,11.35
2022-11-07T10:00:33.895Z,11.18
2022-11-07T10:16:19.761Z,11.50
2022-11-07T10:31:21.728Z,9.43
2022-11-07T10:46:29.398Z,6.30
2022-11-07T11:01:31.416Z,4.15
2022-11-07T11:16:38.554Z,4.28
2022-11-07T11:31:50.823Z,7.85
2022-11-07T11:47:02.413Z,6.28
2022-11-07T12:02:34.951Z,6.78
2022-11-07T12:18:00.107Z,8.77
2022-11-07T12:33:15.096Z,8.80
2022-11-07T12:48:46.340Z,6.03
2022-11-07T13:04:06.303Z,5.07
2022-11-07T13:19:25.398Z,5.82
2022-11-07T13:34:29.845Z,8.98
2022-11-07T13:49:44.332Z,6.10
2022-11-07T14:05:14.900Z,6.45
2022-11-07T14:20:17.275Z,6.85
2022-11-07T14:35:22.088Z,7.38
2022-11-07T14:50:27.802Z,6.90
2022-11-07T15:05:29.687Z,7.85
2022-11-07T15:20:33.288Z,7.38
2022-11-07T15:35:44.133Z,8.85
2022-11-07T15:50:48.870Z,8.55
2022-11-07T16:05:52.682Z,9.05
2022-11-07T16:20:54.549Z,10.80
2022-11-07T16:35:59.436Z,11.35
2022-11-07T16:51:01.367Z,16.50
2022-11-07T17:06:04.332Z,8.50
2022-11-07T17:21:06.241Z,8.50
2022-11-07T17:36:22.823Z,11.60
2022-11-07T17:51:28.745Z,12.43
2022-11-07T18:06:35.002Z,10.60
2022-11-07T18:21:36.956Z,18.80
2022-11-07T18:36:41.767Z,19.73
2022-11-07T18:51:44.128Z,26.27
2022-11-07T19:06:57.988Z,17.15
2022-11-07T19:21:59.882Z,16.40
2022-11-07T19:37:02.036Z,19.52
2022-11-07T19:52:04.083Z,14.30
2022-11-07T20:07:06.560Z,13.82
2022-11-07T20:22:08.463Z,15.35
2022-11-07T20:37:10.379Z,17.02
2022-11-07T20:52:12.206Z,18.80
2022-11-07T21:07:18.105Z,18.75
2022-11-07T21:22:19.976Z,16.77
2022-11-07T21:37:21.855Z,12.23
2022-11-07T21:52:23.778Z,18.25
2022-11-07T22:07:25.676Z,16.50
2022-11-07T22:22:27.509Z,14.38
2022-11-07T22:37:30.736Z,14.07
2022-11-07T22:52:32.621Z,16.13
2022-11-07T23:07:34.545Z,15.60
2022-11-07T23:22:36.606Z,16.90
2022-11-07T23:37:38.428Z,14.48
2022-11-07T23:52:40.304Z,13.00
